createdAt,value
2018-06-20T00:01:24.466Z,18.70
2018-06-20T00:03:53.061Z,18.60
2018-06-20T00:06:21.313Z,18.60
2018-06-20T00:08:52.894Z,18.60
2018-06-20T00:11:25.410Z,18.60
2018-06-20T00:13:55.314Z,18.50
2018-06-20T00:16:24.507Z,18.50
2018-06-20T00:18:52.762Z,18.50
2018-06-20T00:21:20.982Z,18.50
2018-06-20T00:23:49.867Z,18.40
2018-06-20T00:26:18.099Z,18.40
2018-06-20T00:28:46.627Z,18.40
2018-06-20T00:31:15.228Z,18.40
2018-06-20T00:33:43.991Z,18.40
2018-06-20T00:36:12.223Z,18.30
2018-06-20T00:38:40.945Z,18.30
2018-06-20T00:41:09.969Z,18.30
2018-06-20T00:43:38.182Z,18.20
2018-06-20T00:46:06.830Z,18.20
2018-06-20T00:48:35.070Z,18.20
2018-06-20T00:51:03.785Z,18.20
2018-06-20T00:53:32.778Z,18.20
2018-06-20T00:56:13.070Z,18.10
2018-06-20T00:58:41.300Z,18.10
2018-06-20T01:01:10.303Z,18.10
2018-06-20T01:03:39.203Z,18.00
2018-06-20T01:06:07.847Z,18.00
2018-06-20T01:08:36.123Z,18.00
2018-06-20T01:11:04.691Z,18.00
2018-06-20T01:13:34.177Z,18.00
2018-06-20T01:16:03.278Z,17.90
2018-06-20T01:18:31.747Z,17.90
2018-06-20T01:23:28.546Z,17.80
2018-06-20T01:25:56.817Z,17.80
2018-06-20T01:28:25.401Z,17.80
2018-06-20T01:30:54.260Z,17.80
2018-06-20T01:33:22.881Z,17.80
2018-06-20T01:35:51.129Z,17.70
2018-06-20T01:38:19.410Z,17.80
2018-06-20T01:40:48.098Z,17.70
2018-06-20T01:43:16.371Z,17.70
2018-06-20T01:45:45.274Z,17.70
2018-06-20T01:48:13.539Z,17.70
2018-06-20T01:50:42.159Z,17.60
2018-06-20T01:53:10.415Z,17.60
2018-06-20T01:55:39.100Z,17.70
2018-06-20T01:58:07.332Z,17.70
2018-06-20T02:00:35.573Z,17.70
2018-06-20T02:03:04.294Z,17.70
2018-06-20T02:08:00.899Z,17.60
2018-06-20T02:10:29.342Z,17.60
2018-06-20T02:12:57.529Z,17.60
2018-06-20T02:15:29.095Z,17.50
2018-06-20T02:17:57.674Z,17.50
2018-06-20T02:20:26.369Z,17.40
2018-06-20T02:22:54.585Z,17.50
2018-06-20T02:25:23.122Z,17.50
2018-06-20T02:27:51.470Z,17.50
2018-06-20T02:30:19.684Z,17.50
2018-06-20T02:32:48.362Z,17.50
2018-06-20T02:35:17.044Z,17.50
2018-06-20T02:37:45.944Z,17.50
2018-06-20T02:40:14.602Z,17.50
2018-06-20T02:42:43.387Z,17.40
2018-06-20T02:45:11.668Z,17.40
2018-06-20T02:47:42.111Z,17.40
2018-06-20T02:50:11.497Z,17.40
2018-06-20T02:52:40.502Z,17.40
2018-06-20T02:55:09.174Z,17.40
2018-06-20T02:57:37.959Z,17.40
2018-06-20T03:00:06.516Z,17.30
2018-06-20T03:02:35.177Z,17.30
2018-06-20T03:05:03.743Z,17.30
2018-06-20T03:07:31.967Z,17.40
2018-06-20T03:10:00.590Z,17.40
2018-06-20T03:12:29.197Z,17.40
2018-06-20T03:14:57.478Z,17.30
2018-06-20T03:17:26.162Z,17.30
2018-06-20T03:19:54.762Z,17.30
2018-06-20T03:22:23.698Z,17.30
2018-06-20T03:24:52.001Z,17.40
2018-06-20T03:27:20.647Z,17.40
2018-06-20T03:29:49.233Z,17.40
2018-06-20T03:32:18.672Z,17.40
2018-06-20T03:34:47.292Z,17.40
2018-06-20T03:37:15.856Z,17.40
2018-06-20T03:39:44.110Z,17.40
2018-06-20T03:42:12.647Z,17.40
2018-06-20T03:44:41.347Z,17.30
2018-06-20T03:47:10.078Z,17.40
2018-06-20T03:49:38.352Z,17.50
2018-06-20T03:52:07.038Z,17.50
2018-06-20T03:54:35.732Z,17.40
2018-06-20T03:57:04.577Z,17.50
2018-06-20T03:59:33.210Z,17.60
2018-06-20T04:02:02.079Z,17.60
2018-06-20T04:04:30.756Z,17.60
2018-06-20T04:06:59.377Z,17.60
2018-06-20T04:09:28.042Z,17.60
2018-06-20T04:11:56.663Z,17.60
2018-06-20T04:14:24.901Z,17.60
2018-06-20T04:16:53.518Z,17.60
2018-06-20T04:19:21.717Z,17.60
2018-06-20T04:21:50.345Z,17.60
2018-06-20T04:24:18.952Z,17.60
2018-06-20T04:26:47.282Z,17.60
2018-06-20T04:29:16.296Z,17.60
2018-06-20T04:31:44.938Z,17.60
2018-06-20T04:34:13.256Z,17.60
2018-06-20T04:36:42.291Z,17.60
2018-06-20T04:39:11.346Z,17.60
2018-06-20T04:41:40.317Z,17.60
2018-06-20T04:44:15.106Z,17.70
2018-06-20T04:46:43.658Z,17.70
2018-06-20T04:49:12.690Z,17.70
2018-06-20T04:51:41.305Z,17.80
2018-06-20T04:54:10.303Z,17.80
2018-06-20T04:56:39.426Z,17.90
2018-06-20T04:59:07.702Z,17.90
2018-06-20T05:01:36.026Z,18.00
2018-06-20T05:04:04.679Z,18.00
2018-06-20T05:06:32.941Z,18.00
2018-06-20T05:09:02.655Z,18.20
2018-06-20T05:11:30.966Z,18.30
2018-06-20T05:13:59.249Z,18.40
2018-06-20T05:16:27.874Z,18.30
2018-06-20T05:18:56.958Z,18.40
2018-06-20T05:21:25.510Z,18.40
2018-06-20T05:23:53.750Z,18.40
2018-06-20T05:26:22.634Z,18.50
2018-06-20T05:28:51.250Z,18.60
2018-06-20T05:31:19.934Z,18.60
2018-06-20T05:33:48.158Z,18.60
2018-06-20T05:36:16.809Z,18.70
2018-06-20T05:38:45.848Z,18.70
2018-06-20T05:41:14.098Z,18.80
2018-06-20T05:43:42.639Z,19.00
2018-06-20T05:46:11.163Z,19.10
2018-06-20T05:48:39.702Z,19.20
2018-06-20T05:51:07.934Z,19.20
2018-06-20T05:53:36.174Z,19.30
2018-06-20T05:56:05.251Z,19.40
2018-06-20T05:58:34.195Z,19.50
2018-06-20T06:01:02.916Z,19.60
2018-06-20T06:03:31.467Z,19.70
2018-06-20T06:06:09.470Z,19.80
2018-06-20T06:08:37.887Z,19.80
2018-06-20T06:11:06.126Z,19.90
2018-06-20T06:13:34.682Z,20.00
2018-06-20T06:16:02.961Z,20.00
2018-06-20T06:18:31.218Z,20.10
2018-06-20T06:20:59.462Z,20.20
2018-06-20T06:23:27.666Z,20.30
2018-06-20T06:25:57.527Z,20.40
2018-06-20T06:28:26.304Z,20.50
2018-06-20T06:30:54.561Z,20.50
2018-06-20T06:33:23.240Z,20.60
2018-06-20T06:35:51.493Z,20.60
2018-06-20T06:38:19.677Z,20.70
2018-06-20T06:40:47.877Z,20.80
2018-06-20T06:43:16.102Z,20.90
2018-06-20T06:45:44.423Z,20.90
2018-06-20T06:48:12.658Z,21.00
2018-06-20T06:50:40.959Z,21.10
2018-06-20T06:53:09.499Z,21.20
2018-06-20T06:55:38.049Z,21.30
2018-06-20T06:58:06.607Z,21.50
2018-06-20T07:00:35.279Z,21.60
2018-06-20T07:03:03.486Z,21.70
2018-06-20T07:05:31.677Z,21.70
2018-06-20T07:08:00.218Z,21.80
2018-06-20T07:10:28.402Z,21.90
2018-06-20T07:12:56.992Z,22.10
2018-06-20T07:15:25.245Z,22.30
2018-06-20T07:17:53.972Z,22.30
2018-06-20T07:20:22.154Z,22.50
2018-06-20T07:22:50.424Z,22.60
2018-06-20T07:25:18.933Z,22.80
2018-06-20T07:27:47.631Z,22.80
2018-06-20T07:30:15.905Z,22.80
2018-06-20T07:32:44.064Z,23.00
2018-06-20T07:35:12.594Z,23.20
2018-06-20T07:37:41.091Z,23.30
2018-06-20T07:40:09.298Z,23.50
2018-06-20T07:42:38.006Z,23.60
2018-06-20T07:45:07.088Z,23.70
2018-06-20T07:47:35.253Z,23.80
2018-06-20T07:50:04.065Z,23.90
2018-06-20T07:52:32.266Z,23.90
2018-06-20T07:55:00.718Z,24.10
2018-06-20T07:57:28.911Z,24.20
2018-06-20T08:00:03.155Z,24.20
2018-06-20T08:02:48.742Z,24.20
2018-06-20T08:05:22.519Z,24.30
2018-06-20T08:07:56.423Z,24.40
2018-06-20T08:10:30.117Z,24.40
2018-06-20T08:15:38.024Z,24.40
2018-06-20T08:18:11.941Z,24.40
2018-06-20T08:20:41.030Z,24.40
2018-06-20T08:23:09.231Z,24.30
2018-06-20T08:25:37.858Z,24.40
2018-06-20T08:28:06.742Z,24.70
2018-06-20T08:30:35.062Z,25.00
2018-06-20T08:33:03.283Z,25.40
2018-06-20T08:35:33.094Z,25.50
2018-06-20T08:38:01.654Z,25.50
2018-06-20T08:40:32.253Z,25.80
2018-06-20T08:43:01.585Z,25.80
2018-06-20T08:45:30.081Z,25.40
2018-06-20T08:47:58.267Z,25.30
2018-06-20T08:50:27.106Z,25.20
2018-06-20T08:52:55.438Z,25.10
2018-06-20T08:55:23.704Z,25.20
2018-06-20T08:57:52.176Z,25.60
2018-06-20T09:00:26.068Z,25.70
2018-06-20T09:02:54.971Z,25.80
2018-06-20T09:05:28.594Z,26.30
2018-06-20T09:08:02.251Z,26.40
2018-06-20T09:10:36.197Z,26.60
2018-06-20T09:13:10.206Z,26.70
2018-06-20T09:15:43.797Z,27.10
2018-06-20T09:18:17.503Z,27.60
2018-06-20T09:20:45.700Z,27.90
2018-06-20T09:23:14.214Z,27.60
2018-06-20T09:25:42.642Z,27.30
2018-06-20T09:28:11.250Z,26.80
2018-06-20T09:30:39.472Z,26.60
2018-06-20T09:33:07.986Z,26.50
2018-06-20T09:35:37.150Z,26.90
2018-06-20T09:38:05.734Z,27.80
2018-06-20T09:40:35.552Z,28.80
2018-06-20T09:43:03.971Z,30.20
2018-06-20T09:45:32.731Z,30.90
2018-06-20T09:48:01.230Z,31.80
2018-06-20T09:50:34.848Z,32.30
2018-06-20T09:53:03.534Z,32.10
2018-06-20T09:55:34.620Z,31.40
2018-06-20T09:58:03.516Z,31.10
2018-06-20T10:00:37.131Z,30.90
2018-06-20T10:03:11.694Z,31.50
2018-06-20T10:05:45.170Z,31.60
2018-06-20T10:08:18.773Z,31.80
2018-06-20T10:10:51.577Z,33.10
2018-06-20T10:13:24.671Z,34.10
2018-06-20T10:15:53.560Z,35.20
2018-06-20T10:18:22.657Z,35.70
2018-06-20T10:20:51.197Z,33.40
2018-06-20T10:23:19.385Z,32.30
2018-06-20T10:25:47.919Z,31.20
2018-06-20T10:28:16.541Z,30.50
2018-06-20T10:30:44.743Z,30.50
2018-06-20T10:33:12.934Z,30.70
2018-06-20T10:35:42.085Z,30.80
2018-06-20T10:38:10.277Z,32.20
2018-06-20T10:40:38.494Z,33.20
2018-06-20T10:43:07.134Z,34.70
2018-06-20T10:45:40.762Z,34.90
2018-06-20T10:48:13.299Z,33.90
2018-06-20T10:50:41.715Z,34.00
2018-06-20T10:53:09.956Z,33.30
2018-06-20T10:55:39.169Z,32.60
2018-06-20T10:58:13.196Z,32.40
2018-06-20T11:00:47.086Z,33.00
2018-06-20T11:03:21.283Z,33.60
2018-06-20T11:05:55.141Z,34.50
2018-06-20T11:08:28.823Z,34.40
2018-06-20T11:11:03.057Z,32.90
2018-06-20T11:13:31.306Z,31.90
2018-06-20T11:15:59.717Z,31.50
2018-06-20T11:18:28.364Z,32.90
2018-06-20T11:20:57.647Z,34.60
2018-06-20T11:23:26.674Z,36.10
2018-06-20T11:25:55.216Z,36.30
2018-06-20T11:28:23.726Z,35.60
2018-06-20T11:30:52.953Z,36.10
2018-06-20T11:33:24.182Z,36.50
2018-06-20T11:35:53.166Z,36.80
2018-06-20T11:38:21.642Z,38.00
2018-06-20T11:40:49.966Z,38.00
2018-06-20T11:43:18.506Z,37.70
2018-06-20T11:45:52.315Z,36.30
2018-06-20T11:48:20.596Z,36.10
2018-06-20T11:50:48.806Z,35.00
2018-06-20T11:53:18.008Z,34.60
2018-06-20T11:55:47.657Z,33.80
2018-06-20T11:58:21.308Z,32.90
2018-06-20T12:00:56.221Z,33.10
2018-06-20T12:03:29.799Z,32.80
2018-06-20T12:06:03.609Z,31.90
2018-06-20T12:08:37.261Z,31.40
2018-06-20T12:11:10.902Z,31.20
2018-06-20T12:13:44.543Z,31.50
2018-06-20T12:16:19.485Z,32.90
2018-06-20T12:18:53.149Z,35.10
2018-06-20T12:21:26.753Z,35.90
2018-06-20T12:24:00.758Z,37.00
2018-06-20T12:26:34.627Z,36.60
2018-06-20T12:29:08.382Z,37.30
2018-06-20T12:31:42.140Z,38.70
2018-06-20T12:34:15.829Z,40.60
2018-06-20T12:36:49.918Z,39.30
2018-06-20T12:39:17.855Z,37.40
2018-06-20T12:41:51.725Z,36.50
2018-06-20T12:44:25.764Z,37.50
2018-06-20T12:46:59.886Z,36.30
2018-06-20T12:49:30.925Z,34.70
2018-06-20T12:51:59.201Z,33.40
2018-06-20T12:54:27.405Z,33.60
2018-06-20T12:56:56.119Z,35.90
2018-06-20T12:59:24.318Z,37.00
2018-06-20T13:01:52.576Z,36.00
2018-06-20T13:04:20.810Z,36.60
2018-06-20T13:06:49.122Z,38.80
2018-06-20T13:09:18.015Z,39.70
2018-06-20T13:11:46.874Z,40.50
2018-06-20T13:14:15.203Z,40.30
2018-06-20T13:16:43.730Z,40.00
2018-06-20T13:19:11.994Z,39.10
2018-06-20T13:21:40.233Z,38.10
2018-06-20T13:24:08.789Z,36.60
2018-06-20T13:26:37.508Z,35.00
2018-06-20T13:29:05.734Z,34.00
2018-06-20T13:31:39.525Z,33.90
2018-06-20T13:34:13.460Z,34.00
2018-06-20T13:36:47.143Z,33.80
2018-06-20T13:39:20.730Z,33.70
2018-06-20T13:41:54.391Z,33.30
2018-06-20T13:44:23.261Z,32.90
2018-06-20T13:46:57.162Z,32.90
2018-06-20T13:49:25.826Z,32.60
2018-06-20T13:51:54.265Z,32.20
2018-06-20T13:54:23.553Z,32.10
2018-06-20T13:56:52.957Z,32.20
2018-06-20T13:59:21.198Z,32.00
2018-06-20T14:01:49.732Z,31.90
2018-06-20T14:04:17.926Z,31.90
2018-06-20T14:06:46.536Z,32.00
2018-06-20T14:09:14.749Z,32.20
2018-06-20T14:11:43.195Z,32.30
2018-06-20T14:14:11.925Z,32.40
2018-06-20T14:16:40.519Z,32.50
2018-06-20T14:19:09.042Z,32.60
2018-06-20T14:21:39.058Z,32.60
2018-06-20T14:24:08.962Z,32.50
2018-06-20T14:26:38.236Z,32.20
2018-06-20T14:29:08.223Z,31.60
2018-06-20T14:31:42.674Z,31.40
2018-06-20T14:34:16.445Z,31.50
2018-06-20T14:36:50.370Z,31.60
2018-06-20T14:39:24.325Z,31.30
2018-06-20T14:41:59.204Z,31.10
2018-06-20T14:44:27.413Z,30.90
2018-06-20T14:46:55.614Z,31.20
2018-06-20T14:49:24.256Z,31.30
2018-06-20T14:51:52.496Z,31.40
2018-06-20T14:54:20.701Z,31.40
2018-06-20T14:56:48.965Z,31.50
2018-06-20T14:59:18.419Z,31.30
2018-06-20T15:01:46.666Z,31.20
2018-06-20T15:04:15.213Z,31.00
2018-06-20T15:06:43.453Z,31.10
2018-06-20T15:09:11.988Z,31.00
2018-06-20T15:11:40.239Z,30.90
2018-06-20T15:14:08.446Z,30.80
2018-06-20T15:16:42.061Z,30.90
2018-06-20T15:19:10.281Z,30.90
2018-06-20T15:21:38.500Z,30.90
2018-06-20T15:24:06.728Z,31.00
2018-06-20T15:26:40.340Z,30.90
2018-06-20T15:29:13.880Z,30.80
2018-06-20T15:31:47.789Z,30.80
2018-06-20T15:34:21.543Z,30.80
2018-06-20T15:36:55.009Z,30.90
2018-06-20T15:39:23.677Z,30.90
2018-06-20T15:41:51.938Z,30.90
2018-06-20T15:44:20.493Z,30.70
2018-06-20T15:49:17.517Z,30.30
2018-06-20T15:51:46.143Z,30.10
2018-06-20T15:54:14.678Z,30.00
2018-06-20T15:56:43.249Z,29.90
2018-06-20T15:59:11.804Z,29.80
2018-06-20T16:01:40.098Z,29.70
2018-06-20T16:04:08.393Z,29.70
2018-06-20T16:06:36.655Z,29.60
2018-06-20T16:09:12.327Z,29.40
2018-06-20T16:11:40.635Z,29.40
2018-06-20T16:14:08.954Z,29.30
2018-06-20T16:16:37.604Z,29.20
2018-06-20T16:19:11.719Z,29.20
2018-06-20T16:21:45.560Z,29.20
2018-06-20T16:24:19.352Z,29.10
2018-06-20T16:26:53.163Z,29.10
2018-06-20T16:29:26.866Z,29.10
2018-06-20T16:31:55.115Z,29.10
2018-06-20T16:34:23.382Z,29.10
2018-06-20T16:36:52.438Z,29.20
2018-06-20T16:39:20.713Z,29.20
2018-06-20T16:41:48.986Z,29.20
2018-06-20T16:44:17.349Z,29.20
2018-06-20T16:46:45.918Z,29.20
2018-06-20T16:51:44.244Z,29.20
2018-06-20T16:54:12.490Z,29.20
2018-06-20T16:59:09.014Z,29.30
2018-06-20T17:01:42.602Z,29.30
2018-06-20T17:04:10.983Z,29.40
2018-06-20T17:06:39.239Z,29.30
2018-06-20T17:09:08.486Z,29.30
2018-06-20T17:11:37.035Z,29.30
2018-06-20T17:14:10.942Z,29.20
2018-06-20T17:16:44.542Z,29.10
2018-06-20T17:19:18.155Z,29.10
2018-06-20T17:21:52.507Z,29.10
2018-06-20T17:24:26.735Z,29.10
2018-06-20T17:26:55.361Z,29.10
2018-06-20T17:29:23.614Z,29.10
2018-06-20T17:31:51.913Z,29.00
2018-06-20T17:34:20.562Z,29.10
2018-06-20T17:36:48.819Z,29.10
2018-06-20T17:39:17.021Z,29.10
2018-06-20T17:41:45.646Z,29.10
2018-06-20T17:44:17.697Z,29.00
2018-06-20T17:46:46.282Z,29.10
2018-06-20T17:49:14.968Z,29.00
2018-06-20T17:51:43.553Z,28.90
2018-06-20T17:54:11.812Z,28.70
2018-06-20T17:56:40.104Z,28.60
2018-06-20T17:59:08.372Z,28.60
2018-06-20T18:01:36.717Z,28.60
2018-06-20T18:04:05.039Z,28.60
2018-06-20T18:06:39.461Z,28.60
2018-06-20T18:10:16.955Z,28.60
2018-06-20T18:12:50.550Z,28.60
2018-06-20T18:15:24.140Z,28.50
2018-06-20T18:17:52.718Z,28.50
2018-06-20T18:20:20.970Z,28.50
2018-06-20T18:22:49.703Z,28.50
2018-06-20T18:25:18.210Z,28.50
2018-06-20T18:27:47.229Z,28.40
2018-06-20T18:30:15.597Z,28.40
2018-06-20T18:32:43.974Z,28.50
2018-06-20T18:35:12.641Z,28.40
2018-06-20T18:37:41.191Z,28.40
2018-06-20T18:42:55.462Z,28.20
2018-06-20T18:45:24.087Z,28.20
2018-06-20T18:47:57.728Z,28.10
2018-06-20T18:50:26.328Z,28.00
2018-06-20T18:52:55.012Z,28.00
2018-06-20T18:55:23.409Z,27.90
2018-06-20T19:00:00.654Z,27.80
2018-06-20T19:02:35.370Z,27.70
2018-06-20T19:05:09.149Z,27.40
2018-06-20T19:07:43.522Z,27.30
2018-06-20T19:12:41.714Z,27.20
2018-06-20T19:15:10.939Z,27.20
